sensor_id;sensor_type;location;lat;lon;timestamp;temperature;humidity
11214;DHT22;5664;48.606;13.456;2023-09-07T00:02:08;22.50;63.90
11214;DHT22;5664;48.606;13.456;2023-09-07T00:04:33;22.40;64.10
11214;DHT22;5664;48.606;13.456;2023-09-07T00:06:59;22.40;63.90
11214;DHT22;5664;48.606;13.456;2023-09-07T00:09:24;22.30;64.00
11214;DHT22;5664;48.606;13.456;2023-09-07T00:11:52;22.30;64.00
11214;DHT22;5664;48.606;13.456;2023-09-07T00:14:17;22.20;64.00
11214;DHT22;5664;48.606;13.456;2023-09-07T00:16:42;22.20;63.80
11214;DHT22;5664;48.606;13.456;2023-09-07T00:19:08;22.20;63.80
11214;DHT22;5664;48.606;13.456;2023-09-07T00:21:33;22.10;63.70
11214;DHT22;5664;48.606;13.456;2023-09-07T00:23:59;22.00;63.80
11214;DHT22;5664;48.606;13.456;2023-09-07T00:26:29;22.00;64.10
11214;DHT22;5664;48.606;13.456;2023-09-07T00:28:54;22.00;64.30
11214;DHT22;5664;48.606;13.456;2023-09-07T00:31:20;21.90;64.30
11214;DHT22;5664;48.606;13.456;2023-09-07T00:33:45;21.90;64.50
11214;DHT22;5664;48.606;13.456;2023-09-07T00:36:11;21.80;64.50
11214;DHT22;5664;48.606;13.456;2023-09-07T00:38:36;21.80;65.40
11214;DHT22;5664;48.606;13.456;2023-09-07T00:41:02;21.80;64.70
11214;DHT22;5664;48.606;13.456;2023-09-07T00:43:27;21.80;64.70
11214;DHT22;5664;48.606;13.456;2023-09-07T00:45:53;21.70;64.70
11214;DHT22;5664;48.606;13.456;2023-09-07T00:48:19;21.70;64.70
11214;DHT22;5664;48.606;13.456;2023-09-07T00:50:45;21.70;64.90
11214;DHT22;5664;48.606;13.456;2023-09-07T00:53:11;21.70;64.90
11214;DHT22;5664;48.606;13.456;2023-09-07T00:55:36;21.60;64.70
11214;DHT22;5664;48.606;13.456;2023-09-07T00:58:05;21.70;64.70
11214;DHT22;5664;48.606;13.456;2023-09-07T01:00:30;21.70;64.70
11214;DHT22;5664;48.606;13.456;2023-09-07T01:02:57;21.60;64.50
11214;DHT22;5664;48.606;13.456;2023-09-07T01:05:24;21.70;64.60
11214;DHT22;5664;48.606;13.456;2023-09-07T01:07:54;21.70;64.40
11214;DHT22;5664;48.606;13.456;2023-09-07T01:10:20;21.60;64.10
11214;DHT22;5664;48.606;13.456;2023-09-07T01:12:47;21.60;64.20
11214;DHT22;5664;48.606;13.456;2023-09-07T01:15:13;21.60;64.00
11214;DHT22;5664;48.606;13.456;2023-09-07T01:17:38;21.50;64.10
11214;DHT22;5664;48.606;13.456;2023-09-07T01:20:05;21.50;64.90
11214;DHT22;5664;48.606;13.456;2023-09-07T01:22:37;21.50;64.00
11214;DHT22;5664;48.606;13.456;2023-09-07T01:25:04;21.50;64.00
11214;DHT22;5664;48.606;13.456;2023-09-07T01:27:30;21.40;63.70
11214;DHT22;5664;48.606;13.456;2023-09-07T01:29:55;21.40;63.90
11214;DHT22;5664;48.606;13.456;2023-09-07T01:32:22;21.40;63.70
11214;DHT22;5664;48.606;13.456;2023-09-07T01:34:48;21.30;63.90
11214;DHT22;5664;48.606;13.456;2023-09-07T01:37:13;21.30;64.10
11214;DHT22;5664;48.606;13.456;2023-09-07T01:39:39;21.30;64.40
11214;DHT22;5664;48.606;13.456;2023-09-07T01:42:04;21.30;64.20
11214;DHT22;5664;48.606;13.456;2023-09-07T01:44:29;21.30;64.10
11214;DHT22;5664;48.606;13.456;2023-09-07T01:46:55;21.30;63.90
11214;DHT22;5664;48.606;13.456;2023-09-07T01:49:20;21.20;63.80
11214;DHT22;5664;48.606;13.456;2023-09-07T01:51:46;21.20;63.50
11214;DHT22;5664;48.606;13.456;2023-09-07T01:54:11;21.20;63.40
11214;DHT22;5664;48.606;13.456;2023-09-07T01:56:37;21.20;63.60
11214;DHT22;5664;48.606;13.456;2023-09-07T01:59:04;21.20;63.80
11214;DHT22;5664;48.606;13.456;2023-09-07T02:01:30;21.10;63.80
11214;DHT22;5664;48.606;13.456;2023-09-07T02:03:56;21.10;63.70
11214;DHT22;5664;48.606;13.456;2023-09-07T02:06:22;21.10;63.30
11214;DHT22;5664;48.606;13.456;2023-09-07T02:08:47;21.10;63.30
11214;DHT22;5664;48.606;13.456;2023-09-07T02:11:13;21.10;63.40
11214;DHT22;5664;48.606;13.456;2023-09-07T02:13:42;21.10;63.50
11214;DHT22;5664;48.606;13.456;2023-09-07T02:16:08;21.00;63.10
11214;DHT22;5664;48.606;13.456;2023-09-07T02:18:33;21.00;63.30
11214;DHT22;5664;48.606;13.456;2023-09-07T02:21:02;21.00;63.10
11214;DHT22;5664;48.606;13.456;2023-09-07T02:23:29;20.70;63.60
11214;DHT22;5664;48.606;13.456;2023-09-07T02:25:54;20.90;62.60
11214;DHT22;5664;48.606;13.456;2023-09-07T02:28:20;20.90;62.60
11214;DHT22;5664;48.606;13.456;2023-09-07T02:30:45;20.90;62.70
11214;DHT22;5664;48.606;13.456;2023-09-07T02:33:11;20.80;63.30
11214;DHT22;5664;48.606;13.456;2023-09-07T02:35:36;20.80;64.10
11214;DHT22;5664;48.606;13.456;2023-09-07T02:38:02;20.80;64.30
11214;DHT22;5664;48.606;13.456;2023-09-07T02:40:28;20.80;64.90
11214;DHT22;5664;48.606;13.456;2023-09-07T02:42:53;20.70;64.50
11214;DHT22;5664;48.606;13.456;2023-09-07T02:45:19;20.70;64.60
11214;DHT22;5664;48.606;13.456;2023-09-07T02:47:44;20.70;65.20
11214;DHT22;5664;48.606;13.456;2023-09-07T02:50:10;20.70;66.10
11214;DHT22;5664;48.606;13.456;2023-09-07T02:52:35;20.70;66.50
11214;DHT22;5664;48.606;13.456;2023-09-07T02:55:01;20.80;67.10
11214;DHT22;5664;48.606;13.456;2023-09-07T02:57:26;20.90;67.80
11214;DHT22;5664;48.606;13.456;2023-09-07T02:59:52;21.00;67.60
11214;DHT22;5664;48.606;13.456;2023-09-07T03:02:18;21.10;67.50
11214;DHT22;5664;48.606;13.456;2023-09-07T03:04:43;21.10;67.40
11214;DHT22;5664;48.606;13.456;2023-09-07T03:07:09;21.20;67.30
11214;DHT22;5664;48.606;13.456;2023-09-07T03:09:34;21.30;67.30
11214;DHT22;5664;48.606;13.456;2023-09-07T03:12:00;21.30;67.20
11214;DHT22;5664;48.606;13.456;2023-09-07T03:14:25;21.40;67.20
11214;DHT22;5664;48.606;13.456;2023-09-07T03:16:51;21.40;67.00
11214;DHT22;5664;48.606;13.456;2023-09-07T03:19:16;21.40;67.70
11214;DHT22;5664;48.606;13.456;2023-09-07T03:21:42;21.40;66.80
11214;DHT22;5664;48.606;13.456;2023-09-07T03:24:07;21.50;66.80
11214;DHT22;5664;48.606;13.456;2023-09-07T03:26:33;21.50;66.60
11214;DHT22;5664;48.606;13.456;2023-09-07T03:28:58;21.50;65.80
11214;DHT22;5664;48.606;13.456;2023-09-07T03:31:24;21.60;68.00
11214;DHT22;5664;48.606;13.456;2023-09-07T03:33:49;21.60;66.40
11214;DHT22;5664;48.606;13.456;2023-09-07T03:36:15;21.60;66.30
11214;DHT22;5664;48.606;13.456;2023-09-07T03:38:41;21.60;66.30
11214;DHT22;5664;48.606;13.456;2023-09-07T03:41:07;21.60;66.20
11214;DHT22;5664;48.606;13.456;2023-09-07T03:43:32;21.60;66.20
11214;DHT22;5664;48.606;13.456;2023-09-07T03:45:58;21.60;66.20
11214;DHT22;5664;48.606;13.456;2023-09-07T03:48:23;21.70;66.20
11214;DHT22;5664;48.606;13.456;2023-09-07T03:50:49;21.70;66.30
11214;DHT22;5664;48.606;13.456;2023-09-07T03:53:14;21.70;66.20
11214;DHT22;5664;48.606;13.456;2023-09-07T03:55:41;21.70;66.20
11214;DHT22;5664;48.606;13.456;2023-09-07T03:58:08;21.70;66.20
11214;DHT22;5664;48.606;13.456;2023-09-07T04:00:33;21.70;66.60
11214;DHT22;5664;48.606;13.456;2023-09-07T04:02:59;21.80;68.70
11214;DHT22;5664;48.606;13.456;2023-09-07T04:05:25;21.80;67.90
11214;DHT22;5664;48.606;13.456;2023-09-07T04:07:50;21.80;68.00
11214;DHT22;5664;48.606;13.456;2023-09-07T04:10:16;21.80;68.10
11214;DHT22;5664;48.606;13.456;2023-09-07T04:12:41;21.80;68.30
11214;DHT22;5664;48.606;13.456;2023-09-07T04:15:07;21.80;68.40
11214;DHT22;5664;48.606;13.456;2023-09-07T04:17:32;21.80;68.40
11214;DHT22;5664;48.606;13.456;2023-09-07T04:20:06;21.90;68.60
11214;DHT22;5664;48.606;13.456;2023-09-07T04:22:31;21.90;68.60
11214;DHT22;5664;48.606;13.456;2023-09-07T04:24:57;21.90;68.20
11214;DHT22;5664;48.606;13.456;2023-09-07T04:27:22;21.80;65.10
11214;DHT22;5664;48.606;13.456;2023-09-07T04:29:48;21.50;64.20
11214;DHT22;5664;48.606;13.456;2023-09-07T04:32:15;21.30;64.60
11214;DHT22;5664;48.606;13.456;2023-09-07T04:34:40;21.10;64.90
11214;DHT22;5664;48.606;13.456;2023-09-07T04:37:06;20.90;65.40
11214;DHT22;5664;48.606;13.456;2023-09-07T04:39:31;20.70;66.00
11214;DHT22;5664;48.606;13.456;2023-09-07T04:41:57;20.60;66.70
11214;DHT22;5664;48.606;13.456;2023-09-07T04:44:22;20.50;67.50
11214;DHT22;5664;48.606;13.456;2023-09-07T04:46:48;20.50;68.20
11214;DHT22;5664;48.606;13.456;2023-09-07T04:49:13;20.60;69.40
11214;DHT22;5664;48.606;13.456;2023-09-07T04:51:39;20.70;70.20
11214;DHT22;5664;48.606;13.456;2023-09-07T04:54:04;20.80;70.50
11214;DHT22;5664;48.606;13.456;2023-09-07T04:56:30;20.80;70.60
11214;DHT22;5664;48.606;13.456;2023-09-07T04:58:55;20.90;70.60
11214;DHT22;5664;48.606;13.456;2023-09-07T05:01:21;21.00;70.60
11214;DHT22;5664;48.606;13.456;2023-09-07T05:03:46;21.10;70.50
11214;DHT22;5664;48.606;13.456;2023-09-07T05:06:12;21.10;70.50
11214;DHT22;5664;48.606;13.456;2023-09-07T05:08:38;21.20;70.40
11214;DHT22;5664;48.606;13.456;2023-09-07T05:11:04;21.30;70.70
11214;DHT22;5664;48.606;13.456;2023-09-07T05:13:30;21.30;70.30
11214;DHT22;5664;48.606;13.456;2023-09-07T05:15:57;21.30;69.00
11214;DHT22;5664;48.606;13.456;2023-09-07T05:18:23;21.20;66.90
11214;DHT22;5664;48.606;13.456;2023-09-07T05:20:49;21.20;67.50
11214;DHT22;5664;48.606;13.456;2023-09-07T05:23:16;21.00;67.60
11214;DHT22;5664;48.606;13.456;2023-09-07T05:25:48;20.90;68.40
11214;DHT22;5664;48.606;13.456;2023-09-07T05:28:14;20.80;68.90
11214;DHT22;5664;48.606;13.456;2023-09-07T05:30:40;20.80;68.40
11214;DHT22;5664;48.606;13.456;2023-09-07T05:33:06;20.80;68.90
11214;DHT22;5664;48.606;13.456;2023-09-07T05:35:31;20.90;70.00
11214;DHT22;5664;48.606;13.456;2023-09-07T05:37:58;20.80;70.70
11214;DHT22;5664;48.606;13.456;2023-09-07T05:40:23;20.80;69.60
11214;DHT22;5664;48.606;13.456;2023-09-07T05:42:49;20.90;70.50
11214;DHT22;5664;48.606;13.456;2023-09-07T05:45:15;20.90;70.90
11214;DHT22;5664;48.606;13.456;2023-09-07T05:47:40;20.90;71.10
11214;DHT22;5664;48.606;13.456;2023-09-07T05:50:06;21.00;71.40
11214;DHT22;5664;48.606;13.456;2023-09-07T05:52:31;21.10;71.10
11214;DHT22;5664;48.606;13.456;2023-09-07T05:54:57;21.10;71.30
11214;DHT22;5664;48.606;13.456;2023-09-07T05:57:22;21.20;71.10
11214;DHT22;5664;48.606;13.456;2023-09-07T05:59:48;21.20;70.20
11214;DHT22;5664;48.606;13.456;2023-09-07T06:02:13;21.30;69.10
11214;DHT22;5664;48.606;13.456;2023-09-07T06:04:39;21.30;69.60
11214;DHT22;5664;48.606;13.456;2023-09-07T06:07:04;21.40;69.70
11214;DHT22;5664;48.606;13.456;2023-09-07T06:09:30;21.50;69.80
11214;DHT22;5664;48.606;13.456;2023-09-07T06:11:55;21.60;69.80
11214;DHT22;5664;48.606;13.456;2023-09-07T06:14:21;21.70;69.00
11214;DHT22;5664;48.606;13.456;2023-09-07T06:16:46;21.80;69.30
11214;DHT22;5664;48.606;13.456;2023-09-07T06:19:12;22.00;70.30
11214;DHT22;5664;48.606;13.456;2023-09-07T06:21:37;22.00;68.80
11214;DHT22;5664;48.606;13.456;2023-09-07T06:24:03;22.10;68.40
11214;DHT22;5664;48.606;13.456;2023-09-07T06:26:31;22.20;69.20
11214;DHT22;5664;48.606;13.456;2023-09-07T06:28:57;22.30;69.40
11214;DHT22;5664;48.606;13.456;2023-09-07T06:31:22;22.40;69.50
11214;DHT22;5664;48.606;13.456;2023-09-07T06:33:48;22.50;69.50
11214;DHT22;5664;48.606;13.456;2023-09-07T06:36:13;22.60;69.30
11214;DHT22;5664;48.606;13.456;2023-09-07T06:38:39;22.70;69.30
11214;DHT22;5664;48.606;13.456;2023-09-07T06:41:04;22.80;69.10
11214;DHT22;5664;48.606;13.456;2023-09-07T06:43:32;22.90;68.80
11214;DHT22;5664;48.606;13.456;2023-09-07T06:46:08;23.00;68.50
11214;DHT22;5664;48.606;13.456;2023-09-07T06:48:34;23.00;67.10
11214;DHT22;5664;48.606;13.456;2023-09-07T06:51:03;23.10;66.40
11214;DHT22;5664;48.606;13.456;2023-09-07T06:53:29;23.10;66.50
11214;DHT22;5664;48.606;13.456;2023-09-07T06:55:58;23.30;66.50
11214;DHT22;5664;48.606;13.456;2023-09-07T06:58:24;23.20;67.80
11214;DHT22;5664;48.606;13.456;2023-09-07T07:00:50;23.30;68.30
11214;DHT22;5664;48.606;13.456;2023-09-07T07:03:15;23.30;67.90
11214;DHT22;5664;48.606;13.456;2023-09-07T07:05:40;23.40;67.40
11214;DHT22;5664;48.606;13.456;2023-09-07T07:08:06;23.40;67.00
11214;DHT22;5664;48.606;13.456;2023-09-07T07:10:31;23.40;66.60
11214;DHT22;5664;48.606;13.456;2023-09-07T07:12:57;23.50;67.10
11214;DHT22;5664;48.606;13.456;2023-09-07T07:15:22;23.50;67.10
11214;DHT22;5664;48.606;13.456;2023-09-07T07:17:48;23.60;66.60
11214;DHT22;5664;48.606;13.456;2023-09-07T07:20:13;23.60;66.50
11214;DHT22;5664;48.606;13.456;2023-09-07T07:22:39;23.60;66.10
11214;DHT22;5664;48.606;13.456;2023-09-07T07:25:04;23.70;66.10
11214;DHT22;5664;48.606;13.456;2023-09-07T07:27:31;23.70;65.00
11214;DHT22;5664;48.606;13.456;2023-09-07T07:29:56;23.80;64.70
11214;DHT22;5664;48.606;13.456;2023-09-07T07:32:22;23.80;64.40
11214;DHT22;5664;48.606;13.456;2023-09-07T07:34:47;23.80;65.00
11214;DHT22;5664;48.606;13.456;2023-09-07T07:37:13;23.90;65.00
11214;DHT22;5664;48.606;13.456;2023-09-07T07:39:42;24.00;65.30
11214;DHT22;5664;48.606;13.456;2023-09-07T07:42:08;24.00;66.00
11214;DHT22;5664;48.606;13.456;2023-09-07T07:44:33;24.00;63.70
11214;DHT22;5664;48.606;13.456;2023-09-07T07:46:59;24.10;63.00
11214;DHT22;5664;48.606;13.456;2023-09-07T07:49:24;24.10;63.10
11214;DHT22;5664;48.606;13.456;2023-09-07T07:51:50;24.10;62.90
11214;DHT22;5664;48.606;13.456;2023-09-07T07:54:16;24.20;63.40
11214;DHT22;5664;48.606;13.456;2023-09-07T07:56:42;24.20;62.30
11214;DHT22;5664;48.606;13.456;2023-09-07T07:59:07;24.20;62.80
11214;DHT22;5664;48.606;13.456;2023-09-07T08:01:33;24.20;62.80
11214;DHT22;5664;48.606;13.456;2023-09-07T08:03:58;24.30;62.50
11214;DHT22;5664;48.606;13.456;2023-09-07T08:06:24;24.30;62.20
11214;DHT22;5664;48.606;13.456;2023-09-07T08:08:49;24.40;63.40
11214;DHT22;5664;48.606;13.456;2023-09-07T08:11:15;24.40;63.30
11214;DHT22;5664;48.606;13.456;2023-09-07T08:13:40;24.40;63.60
11214;DHT22;5664;48.606;13.456;2023-09-07T08:16:06;24.50;63.50
11214;DHT22;5664;48.606;13.456;2023-09-07T08:18:32;24.50;63.00
11214;DHT22;5664;48.606;13.456;2023-09-07T08:20:58;24.60;62.80
11214;DHT22;5664;48.606;13.456;2023-09-07T08:23:23;24.60;62.10
11214;DHT22;5664;48.606;13.456;2023-09-07T08:25:50;24.60;60.80
11214;DHT22;5664;48.606;13.456;2023-09-07T08:28:16;24.60;60.70
11214;DHT22;5664;48.606;13.456;2023-09-07T08:30:43;24.70;60.50
11214;DHT22;5664;48.606;13.456;2023-09-07T08:33:09;24.70;61.10
11214;DHT22;5664;48.606;13.456;2023-09-07T08:35:34;24.80;61.80
11214;DHT22;5664;48.606;13.456;2023-09-07T08:38:01;24.80;61.90
11214;DHT22;5664;48.606;13.456;2023-09-07T08:40:30;24.80;61.60
11214;DHT22;5664;48.606;13.456;2023-09-07T08:42:56;24.90;61.50
11214;DHT22;5664;48.606;13.456;2023-09-07T08:45:22;24.90;61.30
11214;DHT22;5664;48.606;13.456;2023-09-07T08:47:49;25.00;61.30
11214;DHT22;5664;48.606;13.456;2023-09-07T08:50:15;25.00;60.90
11214;DHT22;5664;48.606;13.456;2023-09-07T08:52:42;25.00;60.90
11214;DHT22;5664;48.606;13.456;2023-09-07T08:55:07;25.00;59.90
11214;DHT22;5664;48.606;13.456;2023-09-07T08:57:36;25.10;59.60
11214;DHT22;5664;48.606;13.456;2023-09-07T09:00:02;25.10;60.00
11214;DHT22;5664;48.606;13.456;2023-09-07T09:02:32;25.10;59.60
11214;DHT22;5664;48.606;13.456;2023-09-07T09:04:58;25.10;58.60
11214;DHT22;5664;48.606;13.456;2023-09-07T09:07:24;25.10;59.00
11214;DHT22;5664;48.606;13.456;2023-09-07T09:09:49;25.30;58.30
11214;DHT22;5664;48.606;13.456;2023-09-07T09:12:15;25.10;58.50
11214;DHT22;5664;48.606;13.456;2023-09-07T09:14:44;25.20;59.00
11214;DHT22;5664;48.606;13.456;2023-09-07T09:17:13;25.20;58.80
11214;DHT22;5664;48.606;13.456;2023-09-07T09:19:40;25.30;59.30
11214;DHT22;5664;48.606;13.456;2023-09-07T09:22:07;25.30;59.00
11214;DHT22;5664;48.606;13.456;2023-09-07T09:24:33;25.30;59.10
11214;DHT22;5664;48.606;13.456;2023-09-07T09:27:02;25.30;59.00
11214;DHT22;5664;48.606;13.456;2023-09-07T09:29:28;25.30;58.60
11214;DHT22;5664;48.606;13.456;2023-09-07T09:31:53;24.90;58.60
11214;DHT22;5664;48.606;13.456;2023-09-07T09:34:20;25.40;58.90
11214;DHT22;5664;48.606;13.456;2023-09-07T09:36:45;25.40;59.20
11214;DHT22;5664;48.606;13.456;2023-09-07T09:39:21;25.50;59.20
11214;DHT22;5664;48.606;13.456;2023-09-07T09:41:46;25.40;58.90
11214;DHT22;5664;48.606;13.456;2023-09-07T09:44:12;25.60;58.90
11214;DHT22;5664;48.606;13.456;2023-09-07T09:46:37;25.60;58.70
11214;DHT22;5664;48.606;13.456;2023-09-07T09:49:04;25.50;58.90
11214;DHT22;5664;48.606;13.456;2023-09-07T09:51:30;25.60;58.80
11214;DHT22;5664;48.606;13.456;2023-09-07T09:53:57;25.60;58.90
11214;DHT22;5664;48.606;13.456;2023-09-07T09:56:22;25.60;59.30
11214;DHT22;5664;48.606;13.456;2023-09-07T09:58:48;25.60;59.40
11214;DHT22;5664;48.606;13.456;2023-09-07T10:01:13;25.60;59.50
11214;DHT22;5664;48.606;13.456;2023-09-07T10:03:42;25.60;59.30
11214;DHT22;5664;48.606;13.456;2023-09-07T10:06:11;25.70;59.40
11214;DHT22;5664;48.606;13.456;2023-09-07T10:08:37;25.70;59.40
11214;DHT22;5664;48.606;13.456;2023-09-07T10:11:08;25.80;59.40
11214;DHT22;5664;48.606;13.456;2023-09-07T10:13:37;25.70;59.30
11214;DHT22;5664;48.606;13.456;2023-09-07T10:16:03;25.80;59.30
11214;DHT22;5664;48.606;13.456;2023-09-07T10:18:36;25.80;58.90
11214;DHT22;5664;48.606;13.456;2023-09-07T10:21:01;25.90;58.90
11214;DHT22;5664;48.606;13.456;2023-09-07T10:23:35;25.90;59.00
11214;DHT22;5664;48.606;13.456;2023-09-07T10:26:02;25.90;59.10
11214;DHT22;5664;48.606;13.456;2023-09-07T10:28:29;25.90;58.50
11214;DHT22;5664;48.606;13.456;2023-09-07T10:31:27;25.90;58.80
11214;DHT22;5664;48.606;13.456;2023-09-07T10:33:46;25.90;58.70
11214;DHT22;5664;48.606;13.456;2023-09-07T10:36:21;26.00;58.90
11214;DHT22;5664;48.606;13.456;2023-09-07T10:38:47;26.00;58.80
11214;DHT22;5664;48.606;13.456;2023-09-07T10:41:13;26.10;59.10
11214;DHT22;5664;48.606;13.456;2023-09-07T10:43:46;26.00;59.00
11214;DHT22;5664;48.606;13.456;2023-09-07T10:46:11;26.10;58.80
11214;DHT22;5664;48.606;13.456;2023-09-07T10:48:37;26.10;58.60
11214;DHT22;5664;48.606;13.456;2023-09-07T10:51:02;26.10;58.20
11214;DHT22;5664;48.606;13.456;2023-09-07T10:53:29;26.10;58.50
11214;DHT22;5664;48.606;13.456;2023-09-07T10:55:56;26.10;59.50
11214;DHT22;5664;48.606;13.456;2023-09-07T10:58:33;26.20;58.40
11214;DHT22;5664;48.606;13.456;2023-09-07T11:01:00;26.20;58.00
11214;DHT22;5664;48.606;13.456;2023-09-07T11:03:26;26.20;58.00
11214;DHT22;5664;48.606;13.456;2023-09-07T11:08:27;26.30;58.30
11214;DHT22;5664;48.606;13.456;2023-09-07T11:10:53;26.30;58.10
11214;DHT22;5664;48.606;13.456;2023-09-07T11:13:19;26.30;58.20
11214;DHT22;5664;48.606;13.456;2023-09-07T11:15:45;26.30;58.20
11214;DHT22;5664;48.606;13.456;2023-09-07T11:18:11;26.30;58.00
11214;DHT22;5664;48.606;13.456;2023-09-07T11:20:36;26.40;58.00
11214;DHT22;5664;48.606;13.456;2023-09-07T11:23:05;26.40;57.80
11214;DHT22;5664;48.606;13.456;2023-09-07T11:25:39;26.40;57.70
11214;DHT22;5664;48.606;13.456;2023-09-07T11:28:06;26.40;57.90
11214;DHT22;5664;48.606;13.456;2023-09-07T11:30:32;26.50;58.00
11214;DHT22;5664;48.606;13.456;2023-09-07T11:33:07;26.50;57.90
11214;DHT22;5664;48.606;13.456;2023-09-07T11:35:33;26.50;58.00
11214;DHT22;5664;48.606;13.456;2023-09-07T11:37:59;26.50;58.10
11214;DHT22;5664;48.606;13.456;2023-09-07T11:40:25;26.50;58.10
11214;DHT22;5664;48.606;13.456;2023-09-07T11:42:50;26.50;58.30
11214;DHT22;5664;48.606;13.456;2023-09-07T11:45:16;26.60;58.40
11214;DHT22;5664;48.606;13.456;2023-09-07T11:47:43;26.60;58.40
11214;DHT22;5664;48.606;13.456;2023-09-07T11:50:08;26.60;58.50
11214;DHT22;5664;48.606;13.456;2023-09-07T11:52:34;26.60;58.60
11214;DHT22;5664;48.606;13.456;2023-09-07T11:55:02;26.70;58.70
11214;DHT22;5664;48.606;13.456;2023-09-07T11:57:29;26.70;58.60
11214;DHT22;5664;48.606;13.456;2023-09-07T11:59:54;26.70;58.60
11214;DHT22;5664;48.606;13.456;2023-09-07T12:02:20;26.80;58.80
11214;DHT22;5664;48.606;13.456;2023-09-07T12:04:46;26.80;58.80
11214;DHT22;5664;48.606;13.456;2023-09-07T12:07:12;26.80;58.60
11214;DHT22;5664;48.606;13.456;2023-09-07T12:09:38;26.80;58.60
11214;DHT22;5664;48.606;13.456;2023-09-07T12:12:03;26.80;58.60
11214;DHT22;5664;48.606;13.456;2023-09-07T12:14:29;26.90;58.80
11214;DHT22;5664;48.606;13.456;2023-09-07T12:16:56;26.90;59.00
11214;DHT22;5664;48.606;13.456;2023-09-07T12:19:22;26.90;59.00
11214;DHT22;5664;48.606;13.456;2023-09-07T12:21:50;27.00;58.80
11214;DHT22;5664;48.606;13.456;2023-09-07T12:24:16;26.90;58.70
11214;DHT22;5664;48.606;13.456;2023-09-07T12:26:41;26.90;58.70
11214;DHT22;5664;48.606;13.456;2023-09-07T12:29:07;26.90;58.70
11214;DHT22;5664;48.606;13.456;2023-09-07T12:31:33;27.10;58.90
11214;DHT22;5664;48.606;13.456;2023-09-07T12:33:58;26.90;58.70
11214;DHT22;5664;48.606;13.456;2023-09-07T12:36:24;26.90;58.40
11214;DHT22;5664;48.606;13.456;2023-09-07T12:38:49;26.90;58.60
11214;DHT22;5664;48.606;13.456;2023-09-07T12:41:15;26.90;58.60
11214;DHT22;5664;48.606;13.456;2023-09-07T12:43:41;27.00;58.60
11214;DHT22;5664;48.606;13.456;2023-09-07T12:46:08;27.00;58.30
11214;DHT22;5664;48.606;13.456;2023-09-07T12:48:34;27.00;58.30
11214;DHT22;5664;48.606;13.456;2023-09-07T12:50:59;27.00;58.50
11214;DHT22;5664;48.606;13.456;2023-09-07T12:53:25;27.10;58.60
11214;DHT22;5664;48.606;13.456;2023-09-07T12:55:54;27.10;58.70
11214;DHT22;5664;48.606;13.456;2023-09-07T12:58:20;27.10;58.50
11214;DHT22;5664;48.606;13.456;2023-09-07T13:00:45;27.10;58.40
11214;DHT22;5664;48.606;13.456;2023-09-07T13:03:13;27.10;58.50
11214;DHT22;5664;48.606;13.456;2023-09-07T13:05:39;27.10;58.20
11214;DHT22;5664;48.606;13.456;2023-09-07T13:08:04;27.20;58.30
11214;DHT22;5664;48.606;13.456;2023-09-07T13:10:30;27.20;58.80
11214;DHT22;5664;48.606;13.456;2023-09-07T13:12:55;27.20;58.10
11214;DHT22;5664;48.606;13.456;2023-09-07T13:15:21;27.20;57.90
11214;DHT22;5664;48.606;13.456;2023-09-07T13:17:47;27.20;57.90
11214;DHT22;5664;48.606;13.456;2023-09-07T13:20:13;27.20;57.70
11214;DHT22;5664;48.606;13.456;2023-09-07T13:22:39;27.30;57.90
11214;DHT22;5664;48.606;13.456;2023-09-07T13:25:04;27.30;57.40
11214;DHT22;5664;48.606;13.456;2023-09-07T13:27:30;27.30;57.40
11214;DHT22;5664;48.606;13.456;2023-09-07T13:29:56;27.30;57.60
11214;DHT22;5664;48.606;13.456;2023-09-07T13:32:22;27.30;57.70
11214;DHT22;5664;48.606;13.456;2023-09-07T13:34:48;27.40;57.60
11214;DHT22;5664;48.606;13.456;2023-09-07T13:37:14;27.30;57.50
11214;DHT22;5664;48.606;13.456;2023-09-07T13:39:39;27.40;57.40
11214;DHT22;5664;48.606;13.456;2023-09-07T13:42:04;27.50;57.30
11214;DHT22;5664;48.606;13.456;2023-09-07T13:44:30;27.40;56.90
11214;DHT22;5664;48.606;13.456;2023-09-07T13:46:55;27.40;56.20
11214;DHT22;5664;48.606;13.456;2023-09-07T13:49:21;27.40;56.40
11214;DHT22;5664;48.606;13.456;2023-09-07T13:51:46;27.40;56.50
11214;DHT22;5664;48.606;13.456;2023-09-07T13:54:12;27.40;56.50
11214;DHT22;5664;48.606;13.456;2023-09-07T13:56:37;27.50;56.60
11214;DHT22;5664;48.606;13.456;2023-09-07T13:59:04;27.50;56.50
11214;DHT22;5664;48.606;13.456;2023-09-07T14:01:29;27.60;56.50
11214;DHT22;5664;48.606;13.456;2023-09-07T14:03:55;27.70;56.20
11214;DHT22;5664;48.606;13.456;2023-09-07T14:06:20;27.70;55.60
11214;DHT22;5664;48.606;13.456;2023-09-07T14:08:49;27.80;55.30
11214;DHT22;5664;48.606;13.456;2023-09-07T14:11:16;27.90;55.30
11214;DHT22;5664;48.606;13.456;2023-09-07T14:13:42;28.00;55.30
11214;DHT22;5664;48.606;13.456;2023-09-07T14:16:07;28.00;54.80
11214;DHT22;5664;48.606;13.456;2023-09-07T14:18:36;28.10;54.60
11214;DHT22;5664;48.606;13.456;2023-09-07T14:21:01;28.10;54.40
11214;DHT22;5664;48.606;13.456;2023-09-07T14:23:27;28.20;54.70
11214;DHT22;5664;48.606;13.456;2023-09-07T14:25:56;28.10;54.70
11214;DHT22;5664;48.606;13.456;2023-09-07T14:28:21;28.30;54.10
11214;DHT22;5664;48.606;13.456;2023-09-07T14:30:47;28.30;54.30
11214;DHT22;5664;48.606;13.456;2023-09-07T14:33:12;28.30;54.20
11214;DHT22;5664;48.606;13.456;2023-09-07T14:35:38;28.30;54.10
11214;DHT22;5664;48.606;13.456;2023-09-07T14:38:04;28.30;54.10
11214;DHT22;5664;48.606;13.456;2023-09-07T14:40:30;28.30;53.80
11214;DHT22;5664;48.606;13.456;2023-09-07T14:42:55;28.30;53.80
11214;DHT22;5664;48.606;13.456;2023-09-07T14:45:23;28.30;53.90
11214;DHT22;5664;48.606;13.456;2023-09-07T14:47:48;28.20;53.80
11214;DHT22;5664;48.606;13.456;2023-09-07T14:50:14;28.20;53.70
11214;DHT22;5664;48.606;13.456;2023-09-07T14:52:39;28.10;54.00
11214;DHT22;5664;48.606;13.456;2023-09-07T14:55:07;28.10;54.10
11214;DHT22;5664;48.606;13.456;2023-09-07T14:57:33;28.10;54.20
11214;DHT22;5664;48.606;13.456;2023-09-07T14:59:59;28.10;54.30
11214;DHT22;5664;48.606;13.456;2023-09-07T15:02:24;28.10;53.90
11214;DHT22;5664;48.606;13.456;2023-09-07T15:04:50;28.10;54.10
11214;DHT22;5664;48.606;13.456;2023-09-07T15:07:15;28.10;54.20
11214;DHT22;5664;48.606;13.456;2023-09-07T15:09:41;28.10;54.50
11214;DHT22;5664;48.606;13.456;2023-09-07T15:12:06;28.10;54.60
11214;DHT22;5664;48.606;13.456;2023-09-07T15:14:32;28.10;54.60
11214;DHT22;5664;48.606;13.456;2023-09-07T15:16:57;28.00;54.50
11214;DHT22;5664;48.606;13.456;2023-09-07T15:19:23;28.00;54.60
11214;DHT22;5664;48.606;13.456;2023-09-07T15:21:48;28.00;54.50
11214;DHT22;5664;48.606;13.456;2023-09-07T15:24:14;28.00;54.70
11214;DHT22;5664;48.606;13.456;2023-09-07T15:26:40;27.90;54.40